Time;durP1;ratioP1;P1;durP2;ratioP2;P2;SDS_P1;SDS_P2;PMS_P1;PMS_P2;Temp;Humidity;BMP_temperature;BMP_pressure;BME280_temperature;BME280_humidity;BME280_pressure;Samples;Min_cycle;Max_cycle;Signal;HPM_P1;HPM_P2
2023/04/25 00:01:08;;;;;;;7.43;6.57;;;8.00;99.90;;;;;;5061307;28;20032;-59
2023/04/25 00:03:35;;;;;;;7.00;6.35;;;8.00;99.90;;;;;;5062010;28;20416;-59
2023/04/25 00:06:02;;;;;;;7.63;6.93;;;8.00;99.90;;;;;;5062480;28;20044;-58
2023/04/25 00:08:30;;;;;;;7.55;6.65;;;8.00;99.90;;;;;;5063639;28;20196;-58
2023/04/25 00:10:56;;;;;;;8.70;7.53;;;8.10;99.90;;;;;;5059097;28;20036;-58
2023/04/25 00:13:22;;;;;;;6.50;5.97;;;8.10;99.90;;;;;;5059074;28;20849;-58
2023/04/25 00:15:48;;;;;;;6.80;5.57;;;8.10;99.90;;;;;;5064720;28;20060;-59
2023/04/25 00:18:14;;;;;;;6.57;5.93;;;8.10;99.90;;;;;;5061350;28;20051;-59
2023/04/25 00:20:40;;;;;;;6.90;6.25;;;8.10;99.90;;;;;;5065925;28;20056;-59
2023/04/25 00:23:06;;;;;;;7.85;7.05;;;8.10;99.90;;;;;;5064774;28;20505;-58
2023/04/25 00:25:31;;;;;;;6.90;6.30;;;8.10;99.90;;;;;;5065425;28;20095;-58
2023/04/25 00:27:57;;;;;;;11.05;7.18;;;8.10;99.90;;;;;;5064103;28;20052;-59
2023/04/25 00:30:22;;;;;;;7.95;6.40;;;8.10;99.90;;;;;;5060790;28;20025;-60
2023/04/25 00:32:48;;;;;;;6.70;6.07;;;8.10;99.90;;;;;;5061173;28;20115;-58
2023/04/25 00:35:14;;;;;;;7.45;6.75;;;8.10;99.90;;;;;;5062754;28;20021;-59
2023/04/25 00:37:40;;;;;;;6.85;6.20;;;8.20;99.90;;;;;;5047186;28;20614;-59
2023/04/25 00:40:07;;;;;;;9.00;6.28;;;8.20;99.90;;;;;;5063828;28;20033;-58
2023/04/25 00:42:32;;;;;;;6.93;6.20;;;8.20;99.90;;;;;;5060893;28;20083;-59
2023/04/25 00:44:59;;;;;;;7.53;6.82;;;8.20;99.90;;;;;;5062144;28;20048;-58
2023/04/25 00:47:25;;;;;;;7.20;6.22;;;8.20;99.90;;;;;;5064463;28;20025;-58
2023/04/25 00:49:53;;;;;;;7.25;6.53;;;8.10;99.90;;;;;;5062606;28;20033;-59
2023/04/25 00:52:19;;;;;;;7.55;6.25;;;8.10;99.90;;;;;;5060735;28;20036;-59
2023/04/25 00:54:45;;;;;;;6.90;6.30;;;8.10;99.90;;;;;;5052319;28;20056;-59
2023/04/25 00:57:10;;;;;;;6.57;5.97;;;8.10;99.90;;;;;;5064002;28;20496;-58
2023/04/25 00:59:37;;;;;;;7.75;6.95;;;8.10;99.90;;;;;;5063887;28;20057;-59
2023/04/25 01:02:04;;;;;;;6.93;6.22;;;8.10;99.90;;;;;;5060281;28;20045;-59
2023/04/25 01:04:30;;;;;;;6.82;6.22;;;8.10;99.90;;;;;;5063457;28;20117;-60
2023/04/25 01:06:56;;;;;;;8.50;6.90;;;8.10;99.90;;;;;;5062645;28;20108;-59
2023/04/25 01:09:22;;;;;;;6.97;6.35;;;8.10;99.90;;;;;;5060915;28;20033;-58
2023/04/25 01:11:49;;;;;;;7.53;6.70;;;8.10;99.90;;;;;;5061669;28;20029;-59
2023/04/25 01:14:14;;;;;;;7.35;6.75;;;8.10;99.90;;;;;;5059884;28;20509;-60
2023/04/25 01:16:41;;;;;;;8.00;6.97;;;8.00;99.90;;;;;;5060075;28;20035;-59
2023/04/25 01:19:13;;;;;;;7.68;6.95;;;8.00;99.90;;;;;;5059700;28;20064;-59
2023/04/25 01:21:39;;;;;;;7.20;6.38;;;8.00;99.90;;;;;;5057511;28;20587;-58
2023/04/25 01:24:06;;;;;;;7.13;6.53;;;8.00;99.90;;;;;;5043918;28;20048;-58
2023/04/25 01:26:33;;;;;;;8.65;6.70;;;7.90;99.90;;;;;;5048493;28;20132;-58
2023/04/25 01:28:59;;;;;;;7.45;6.85;;;7.90;99.90;;;;;;5058784;28;20667;-59
2023/04/25 01:31:26;;;;;;;9.30;6.93;;;7.90;99.90;;;;;;5059357;28;20547;-58
2023/04/25 01:33:53;;;;;;;7.47;6.80;;;7.90;99.90;;;;;;5058477;28;20517;-60
2023/04/25 01:36:18;;;;;;;7.32;6.63;;;7.90;99.90;;;;;;5059755;28;20024;-58
2023/04/25 01:38:47;;;;;;;7.53;6.72;;;7.90;99.90;;;;;;5060954;28;20044;-58
2023/04/25 01:41:13;;;;;;;8.50;7.43;;;7.90;99.90;;;;;;5057817;28;20075;-59
2023/04/25 01:43:39;;;;;;;8.63;7.15;;;7.90;99.90;;;;;;5057438;28;20028;-59
2023/04/25 01:46:05;;;;;;;8.48;7.32;;;7.90;99.90;;;;;;5059018;28;20413;-57
2023/04/25 01:48:30;;;;;;;7.78;6.95;;;7.90;99.90;;;;;;5058479;28;20552;-59
2023/04/25 01:50:56;;;;;;;6.97;6.28;;;7.90;99.90;;;;;;5058114;28;20453;-59
2023/04/25 01:53:22;;;;;;;9.45;7.13;;;7.90;99.90;;;;;;5060662;28;20028;-58
2023/04/25 01:55:48;;;;;;;8.07;7.38;;;7.90;99.90;;;;;;5056928;28;20445;-58
2023/04/25 01:58:13;;;;;;;10.73;7.25;;;7.90;99.90;;;;;;5058128;28;20024;-58
2023/04/25 02:00:40;;;;;;;8.10;7.30;;;7.80;99.90;;;;;;5057956;28;20116;-58
2023/04/25 02:03:06;;;;;;;8.23;7.53;;;7.80;99.90;;;;;;5058546;28;20036;-59
2023/04/25 02:05:40;;;;;;;10.07;7.53;;;7.80;99.90;;;;;;5059657;28;20796;-58
2023/04/25 02:08:07;;;;;;;8.85;7.13;;;7.80;99.90;;;;;;5057168;28;20381;-58
2023/04/25 02:10:33;;;;;;;8.52;6.97;;;7.80;99.90;;;;;;5055496;28;20484;-60
2023/04/25 02:12:59;;;;;;;8.20;7.47;;;7.80;99.90;;;;;;5060125;28;20025;-59
2023/04/25 02:15:25;;;;;;;7.38;6.68;;;7.80;99.90;;;;;;5056192;28;20546;-58
2023/04/25 02:17:52;;;;;;;8.77;6.60;;;7.80;99.90;;;;;;5059465;28;20025;-59
2023/04/25 02:20:19;;;;;;;7.75;7.10;;;7.80;99.90;;;;;;5057487;28;20037;-58
2023/04/25 02:22:45;;;;;;;10.45;6.78;;;7.80;99.90;;;;;;5055778;28;20090;-59
2023/04/25 02:25:11;;;;;;;7.95;7.22;;;7.80;99.90;;;;;;5060851;28;20036;-58
2023/04/25 02:27:37;;;;;;;8.60;7.80;;;7.70;99.90;;;;;;5055875;28;20032;-58
2023/04/25 02:30:04;;;;;;;9.50;8.10;;;7.70;99.90;;;;;;5056983;28;20043;-58
2023/04/25 02:32:30;;;;;;;9.50;8.70;;;7.70;99.90;;;;;;5056492;28;20079;-59
2023/04/25 02:34:58;;;;;;;9.18;8.27;;;7.70;99.90;;;;;;5056959;28;20029;-59
2023/04/25 02:37:24;;;;;;;14.38;8.05;;;7.60;99.90;;;;;;5057644;28;20420;-58
2023/04/25 02:39:49;;;;;;;9.15;8.10;;;7.60;99.90;;;;;;5057807;28;20036;-59
2023/04/25 02:42:15;;;;;;;10.38;8.48;;;7.60;99.90;;;;;;5057446;28;20024;-59
2023/04/25 02:44:41;;;;;;;9.55;8.48;;;7.70;99.90;;;;;;5058444;28;20029;-58
2023/04/25 02:47:06;;;;;;;9.68;8.65;;;7.70;99.90;;;;;;5059327;28;20036;-58
2023/04/25 02:49:32;;;;;;;13.05;9.32;;;7.60;99.90;;;;;;5055109;28;20024;-58
2023/04/25 02:51:58;;;;;;;11.50;8.85;;;7.60;99.90;;;;;;5055179;28;20057;-58
2023/04/25 02:54:23;;;;;;;10.07;9.18;;;7.60;99.90;;;;;;5056105;28;20037;-58
2023/04/25 02:56:49;;;;;;;12.02;9.60;;;7.60;99.90;;;;;;5061574;28;20025;-59
2023/04/25 02:59:15;;;;;;;11.13;10.13;;;7.60;99.90;;;;;;5055929;28;20041;-59
2023/04/25 03:01:40;;;;;;;11.55;9.45;;;7.60;99.90;;;;;;5054101;28;20100;-58
2023/04/25 03:04:06;;;;;;;10.95;8.38;;;7.60;99.90;;;;;;5058706;28;20048;-58
2023/04/25 03:06:32;;;;;;;11.10;8.85;;;7.60;99.90;;;;;;5054711;28;20501;-58
2023/04/25 03:08:57;;;;;;;10.73;8.63;;;7.60;99.90;;;;;;5058849;28;20021;-58
2023/04/25 03:11:25;;;;;;;10.07;9.18;;;7.60;99.90;;;;;;5057492;28;20166;-58
2023/04/25 03:13:50;;;;;;;12.70;9.07;;;7.60;99.90;;;;;;5056064;28;21989;-59
2023/04/25 03:16:16;;;;;;;10.90;8.35;;;7.60;99.90;;;;;;5056032;28;20075;-59
2023/04/25 03:18:42;;;;;;;10.50;9.48;;;7.60;99.90;;;;;;5055673;28;20128;-59
2023/04/25 03:21:08;;;;;;;10.48;8.55;;;7.60;99.90;;;;;;5058395;28;20509;-59
2023/04/25 03:23:33;;;;;;;10.07;9.00;;;7.60;99.90;;;;;;5057179;28;20651;-58
2023/04/25 03:25:59;;;;;;;11.40;9.40;;;7.60;99.90;;;;;;5054334;28;20021;-58
2023/04/25 03:28:25;;;;;;;9.80;8.90;;;7.60;99.90;;;;;;5057922;28;20090;-60
2023/04/25 03:30:50;;;;;;;10.82;9.77;;;7.60;99.90;;;;;;5058711;28;20032;-59
2023/04/25 03:33:16;;;;;;;10.50;9.48;;;7.60;99.90;;;;;;5056001;28;20783;-60
2023/04/25 03:35:42;;;;;;;11.35;9.10;;;7.60;99.90;;;;;;5057056;28;20024;-59
2023/04/25 03:38:08;;;;;;;10.13;9.07;;;7.60;99.90;;;;;;5056439;28;20042;-57
2023/04/25 03:40:34;;;;;;;10.50;9.38;;;7.60;99.90;;;;;;5057033;28;20025;-58
2023/04/25 03:42:59;;;;;;;12.38;9.32;;;7.60;99.90;;;;;;5055930;28;20131;-59
2023/04/25 03:45:25;;;;;;;10.93;9.75;;;7.60;99.90;;;;;;5056586;28;20113;-58
2023/04/25 03:47:51;;;;;;;10.70;8.07;;;7.60;99.90;;;;;;5054618;28;20033;-58
2023/04/25 03:50:16;;;;;;;11.07;9.80;;;7.60;99.90;;;;;;5052303;28;20025;-58
2023/04/25 03:52:43;;;;;;;12.43;8.90;;;7.60;99.90;;;;;;5058153;28;20497;-59
2023/04/25 03:55:09;;;;;;;10.77;9.77;;;7.60;99.90;;;;;;5053043;28;20570;-58
2023/04/25 03:57:35;;;;;;;12.68;9.30;;;7.70;99.90;;;;;;5055876;28;20512;-58
2023/04/25 04:00:01;;;;;;;11.27;9.70;;;7.70;99.90;;;;;;5053412;28;20025;-58
2023/04/25 04:02:26;;;;;;;10.32;9.25;;;7.70;99.90;;;;;;5058868;28;20134;-59
2023/04/25 04:04:52;;;;;;;9.55;8.75;;;7.70;99.90;;;;;;5053041;28;20029;-60
2023/04/25 04:07:17;;;;;;;9.35;8.13;;;7.80;99.90;;;;;;5055673;28;20115;-61
2023/04/25 04:09:43;;;;;;;9.43;8.52;;;7.80;99.90;;;;;;5056426;28;20029;-62
2023/04/25 04:12:09;;;;;;;9.77;8.77;;;7.80;99.90;;;;;;5036826;28;20075;-59
2023/04/25 04:14:34;;;;;;;10.10;9.02;;;7.80;99.90;;;;;;5055938;28;20501;-59
2023/04/25 04:17:00;;;;;;;9.80;8.73;;;7.80;99.90;;;;;;5055907;28;20032;-59
2023/04/25 04:19:26;;;;;;;12.50;8.70;;;7.70;99.90;;;;;;5052933;28;20480;-59
2023/04/25 04:21:51;;;;;;;16.65;10.90;;;7.70;99.90;;;;;;5058033;28;20497;-59
2023/04/25 04:24:17;;;;;;;12.20;11.00;;;7.60;99.90;;;;;;5053725;28;20020;-59
2023/04/25 04:26:44;;;;;;;12.95;9.70;;;7.60;99.90;;;;;;5055680;28;20412;-61
2023/04/25 04:29:10;;;;;;;11.77;7.47;;;7.50;99.90;;;;;;5053987;28;20106;-58
2023/04/25 04:31:36;;;;;;;6.47;5.80;;;7.50;99.90;;;;;;5050498;28;20446;-59
2023/04/25 04:34:03;;;;;;;7.60;6.18;;;7.30;99.90;;;;;;5057147;28;20049;-59
2023/04/25 04:36:29;;;;;;;6.03;5.45;;;7.30;99.90;;;;;;5059864;28;20056;-58
2023/04/25 04:38:56;;;;;;;5.43;4.93;;;7.10;99.90;;;;;;5053267;28;20025;-58
2023/04/25 04:41:22;;;;;;;5.07;4.63;;;7.10;99.90;;;;;;5055830;28;20019;-59
2023/04/25 04:43:47;;;;;;;6.80;4.55;;;7.00;99.90;;;;;;5056367;28;20026;-59
2023/04/25 04:46:14;;;;;;;6.30;4.28;;;7.00;99.90;;;;;;5057116;28;20025;-60
2023/04/25 04:48:40;;;;;;;4.03;3.63;;;6.90;99.90;;;;;;5058546;28;20453;-58
2023/04/25 04:51:06;;;;;;;4.30;3.70;;;6.90;99.90;;;;;;5061608;28;20144;-59
2023/04/25 04:53:32;;;;;;;4.90;3.72;;;6.80;99.90;;;;;;5041866;28;20049;-59
2023/04/25 04:55:58;;;;;;;4.45;3.45;;;6.80;99.90;;;;;;5062096;28;20055;-61
2023/04/25 04:58:24;;;;;;;6.32;4.38;;;6.80;99.90;;;;;;5055790;28;20477;-59
2023/04/25 05:00:50;;;;;;;5.80;5.20;;;6.70;99.90;;;;;;5057743;28;20033;-59
2023/04/25 05:03:16;;;;;;;5.97;4.95;;;6.70;99.90;;;;;;5059847;28;20029;-59
2023/04/25 05:05:41;;;;;;;8.70;4.28;;;6.70;99.90;;;;;;5053623;28;20052;-58
2023/04/25 05:08:07;;;;;;;5.32;4.82;;;6.60;99.90;;;;;;5057068;28;20497;-59
2023/04/25 05:10:33;;;;;;;6.80;4.43;;;6.60;99.90;;;;;;5060001;28;20023;-58
2023/04/25 05:12:58;;;;;;;4.68;3.30;;;6.70;99.90;;;;;;5041446;28;20024;-59
2023/04/25 05:15:24;;;;;;;3.47;3.00;;;6.70;99.90;;;;;;5059038;28;20032;-60
2023/04/25 05:17:50;;;;;;;3.20;2.85;;;6.70;99.90;;;;;;5058947;28;20041;-58
2023/04/25 05:20:16;;;;;;;3.25;2.95;;;6.60;99.90;;;;;;5059353;28;20029;-58
2023/04/25 05:22:41;;;;;;;3.47;3.17;;;6.50;99.90;;;;;;5056215;28;20049;-58
2023/04/25 05:25:08;;;;;;;2.90;2.60;;;6.50;99.90;;;;;;5060744;28;20492;-59
2023/04/25 05:27:34;;;;;;;6.22;3.10;;;6.50;99.90;;;;;;5058899;28;20110;-59
2023/04/25 05:30:00;;;;;;;3.90;3.33;;;6.40;99.90;;;;;;5062264;28;20079;-58
2023/04/25 05:32:26;;;;;;;4.10;3.72;;;6.40;99.90;;;;;;5062289;28;20036;-58
2023/04/25 05:34:51;;;;;;;3.05;2.60;;;6.50;99.90;;;;;;5062383;28;20512;-58
2023/04/25 05:37:17;;;;;;;3.22;2.90;;;6.50;99.90;;;;;;5061638;28;20025;-59
2023/04/25 05:39:43;;;;;;;4.68;3.47;;;6.50;99.90;;;;;;5061404;28;20021;-59
2023/04/25 05:42:09;;;;;;;3.65;2.88;;;6.50;99.90;;;;;;5063268;28;20103;-59
2023/04/25 05:44:34;;;;;;;3.15;2.85;;;6.60;99.90;;;;;;5059721;28;20496;-60
2023/04/25 05:47:00;;;;;;;3.63;3.20;;;6.60;99.90;;;;;;5060790;28;20023;-59
2023/04/25 05:49:26;;;;;;;4.72;3.15;;;6.60;99.90;;;;;;5063616;28;20024;-58
2023/04/25 05:51:51;;;;;;;3.75;2.53;;;6.70;99.90;;;;;;5063114;28;20024;-58
2023/04/25 05:54:17;;;;;;;3.65;2.70;;;6.70;99.90;;;;;;5060274;28;20555;-59
2023/04/25 05:56:43;;;;;;;3.22;2.92;;;6.80;99.90;;;;;;5061619;28;20398;-59
2023/04/25 05:59:08;;;;;;;4.68;2.95;;;6.80;99.90;;;;;;5061426;28;20036;-59
2023/04/25 06:01:34;;;;;;;2.83;2.47;;;6.80;99.90;;;;;;5060651;28;20035;-58
2023/04/25 06:03:59;;;;;;;2.92;2.67;;;6.90;99.90;;;;;;5062014;28;20033;-58
2023/04/25 06:06:26;;;;;;;3.70;2.97;;;7.00;99.90;;;;;;5044072;28;20025;-58
2023/04/25 06:08:52;;;;;;;3.63;3.30;;;7.10;99.90;;;;;;5058796;28;20035;-58
2023/04/25 06:11:17;;;;;;;2.63;2.42;;;7.30;99.90;;;;;;5057722;28;20017;-58
2023/04/25 06:13:43;;;;;;;2.85;2.45;;;7.30;99.90;;;;;;5060733;28;20036;-59
2023/04/25 06:16:09;;;;;;;4.60;2.53;;;7.40;99.90;;;;;;5062569;28;20555;-59
2023/04/25 06:18:34;;;;;;;2.78;2.58;;;7.50;99.90;;;;;;5059775;28;20079;-58
2023/04/25 06:21:00;;;;;;;2.88;2.58;;;7.60;99.90;;;;;;5059096;28;20021;-59
2023/04/25 06:23:26;;;;;;;4.45;3.00;;;7.70;99.90;;;;;;5057726;28;20029;-59
2023/04/25 06:25:52;;;;;;;7.72;2.40;;;7.80;99.90;;;;;;5056236;28;20040;-59
2023/04/25 06:28:17;;;;;;;3.70;3.25;;;7.90;99.90;;;;;;5058390;28;20456;-58
2023/04/25 06:30:43;;;;;;;3.50;3.20;;;7.80;99.90;;;;;;5057732;28;20046;-59
2023/04/25 06:33:08;;;;;;;4.63;3.47;;;7.80;99.90;;;;;;5059978;28;20405;-59
2023/04/25 06:35:35;;;;;;;3.97;3.58;;;7.80;99.90;;;;;;5058483;28;20025;-58
2023/04/25 06:38:00;;;;;;;3.40;3.20;;;7.80;99.90;;;;;;5040025;28;20036;-58
2023/04/25 06:40:26;;;;;;;3.15;2.67;;;7.90;99.90;;;;;;5058865;28;20025;-58
2023/04/25 06:42:51;;;;;;;4.68;3.10;;;7.90;99.90;;;;;;5042269;28;20021;-59
2023/04/25 06:45:17;;;;;;;2.92;2.70;;;8.00;99.90;;;;;;5061060;28;20427;-59
2023/04/25 06:47:43;;;;;;;3.83;3.00;;;8.10;99.90;;;;;;5055173;28;20033;-58
2023/04/25 06:50:09;;;;;;;2.75;2.50;;;8.10;99.90;;;;;;5055604;28;20067;-58
2023/04/25 06:52:34;;;;;;;3.15;2.60;;;8.00;99.90;;;;;;5058764;28;20033;-58
2023/04/25 06:55:00;;;;;;;6.22;3.38;;;8.00;99.90;;;;;;5057649;28;20422;-58
2023/04/25 06:57:26;;;;;;;4.13;3.72;;;8.00;99.90;;;;;;5059690;28;20025;-59
2023/04/25 06:59:51;;;;;;;4.10;3.50;;;7.90;99.90;;;;;;5059299;28;20082;-58
2023/04/25 07:02:17;;;;;;;5.57;3.35;;;8.00;99.90;;;;;;5062562;28;20511;-59
2023/04/25 07:04:42;;;;;;;3.50;3.15;;;8.20;99.90;;;;;;5060204;28;20111;-58
2023/04/25 07:07:08;;;;;;;7.13;4.22;;;8.50;99.90;;;;;;5061434;28;20162;-58
2023/04/25 07:09:34;;;;;;;3.88;2.65;;;8.60;99.90;;;;;;5056102;28;20451;-59
2023/04/25 07:12:01;;;;;;;3.83;3.53;;;8.60;99.90;;;;;;5057306;28;20029;-59
2023/04/25 07:14:27;;;;;;;3.45;3.15;;;8.60;99.90;;;;;;5054393;28;20049;-59
2023/04/25 07:16:55;;;;;;;5.80;3.88;;;8.70;99.90;;;;;;5055128;28;20485;-59
2023/04/25 07:19:21;;;;;;;3.53;3.13;;;8.80;99.90;;;;;;5055495;28;20086;-59
2023/04/25 07:21:46;;;;;;;3.17;2.90;;;8.80;99.90;;;;;;5052310;28;20381;-58
2023/04/25 07:24:12;;;;;;;3.55;3.00;;;8.90;99.90;;;;;;5056666;28;20026;-59
2023/04/25 07:26:38;;;;;;;4.05;3.65;;;8.90;99.90;;;;;;5056265;28;20107;-60
2023/04/25 07:29:03;;;;;;;3.75;3.13;;;8.80;99.90;;;;;;5057109;28;20056;-60
2023/04/25 07:31:29;;;;;;;4.63;3.95;;;8.70;99.90;;;;;;5056125;28;20472;-58
2023/04/25 07:33:55;;;;;;;4.45;4.05;;;8.50;99.90;;;;;;5037198;28;20493;-58
2023/04/25 07:36:21;;;;;;;5.65;4.70;;;8.50;99.90;;;;;;5055971;28;20539;-59
2023/04/25 07:38:46;;;;;;;5.57;4.40;;;8.40;99.90;;;;;;5056660;28;20060;-58
2023/04/25 07:41:12;;;;;;;5.13;4.65;;;8.40;99.90;;;;;;5054494;28;20163;-58
2023/04/25 07:43:38;;;;;;;6.50;5.32;;;8.50;99.90;;;;;;5057408;28;20081;-58
2023/04/25 07:46:04;;;;;;;5.55;5.15;;;8.50;99.90;;;;;;5056124;28;20036;-59
2023/04/25 07:48:30;;;;;;;6.15;5.55;;;8.50;99.90;;;;;;5053716;28;20119;-59
2023/04/25 07:50:56;;;;;;;7.10;6.43;;;8.50;99.90;;;;;;5054702;28;20500;-59
2023/04/25 07:53:21;;;;;;;8.30;6.47;;;8.50;99.90;;;;;;5054735;28;20602;-58
2023/04/25 07:55:47;;;;;;;8.25;7.18;;;8.60;99.90;;;;;;5054889;28;20405;-58
2023/04/25 07:58:13;;;;;;;10.18;6.85;;;8.60;99.90;;;;;;5053668;28;20091;-58
2023/04/25 08:00:39;;;;;;;8.25;6.80;;;8.70;99.90;;;;;;5058115;28;20680;-59
2023/04/25 08:03:06;;;;;;;7.43;6.68;;;8.80;99.90;;;;;;5057127;28;20036;-59
2023/04/25 08:05:31;;;;;;;7.38;6.68;;;8.90;99.90;;;;;;5056318;28;20025;-59
2023/04/25 08:07:57;;;;;;;8.63;6.63;;;9.00;99.90;;;;;;5055685;28;20056;-58
2023/04/25 08:10:23;;;;;;;7.13;6.43;;;9.10;99.90;;;;;;5056761;28;20060;-58
2023/04/25 08:12:49;;;;;;;9.27;6.32;;;9.10;99.90;;;;;;5054195;28;20071;-58
2023/04/25 08:15:14;;;;;;;7.10;5.70;;;9.10;99.90;;;;;;5057340;28;20064;-59
2023/04/25 08:17:40;;;;;;;7.35;6.65;;;9.10;99.90;;;;;;5056280;28;20064;-60
2023/04/25 08:20:07;;;;;;;7.80;5.32;;;9.10;99.90;;;;;;5057292;28;20040;-59
2023/04/25 08:22:33;;;;;;;8.40;6.30;;;9.30;99.90;;;;;;5059896;28;20055;-58
2023/04/25 08:24:59;;;;;;;6.78;5.93;;;9.60;99.90;;;;;;5061010;28;20013;-58
2023/04/25 08:27:25;;;;;;;4.90;4.40;;;9.90;99.90;;;;;;5060068;28;20032;-58
2023/04/25 08:29:51;;;;;;;4.97;4.32;;;10.10;99.90;;;;;;5048532;28;20060;-59
2023/04/25 08:32:16;;;;;;;5.57;4.22;;;10.20;99.90;;;;;;5061349;28;20514;-58
2023/04/25 08:34:43;;;;;;;4.43;4.03;;;10.20;99.90;;;;;;5060231;28;20112;-59
2023/04/25 08:37:09;;;;;;;4.95;3.80;;;10.20;99.90;;;;;;5058139;28;20485;-58
2023/04/25 08:39:36;;;;;;;5.57;4.25;;;10.30;99.90;;;;;;5057466;28;20124;-59
2023/04/25 08:42:07;;;;;;;4.72;3.97;;;10.40;99.90;;;;;;5062198;28;20028;-58
2023/04/25 08:44:34;;;;;;;3.78;3.35;;;10.40;99.90;;;;;;5058252;28;20043;-59
2023/04/25 08:47:05;;;;;;;8.70;4.18;;;10.40;99.90;;;;;;5058700;28;20366;-58
2023/04/25 08:49:34;;;;;;;5.18;3.70;;;10.30;99.90;;;;;;5060911;28;20028;-59
2023/04/25 08:52:03;;;;;;;4.60;3.83;;;10.10;99.90;;;;;;5041421;28;20068;-58
2023/04/25 08:54:31;;;;;;;5.93;4.20;;;10.00;99.90;;;;;;5046838;28;20095;-58
2023/04/25 08:57:01;;;;;;;5.50;3.97;;;9.70;99.90;;;;;;5059729;28;20051;-58
2023/04/25 08:59:27;;;;;;;5.35;3.55;;;9.60;99.90;;;;;;5058030;28;20037;-58
2023/04/25 09:01:53;;;;;;;5.15;3.53;;;9.50;99.90;;;;;;5060109;28;20033;-58
2023/04/25 09:04:20;;;;;;;4.32;2.90;;;9.40;99.90;;;;;;5057529;28;20036;-59
2023/04/25 09:06:46;;;;;;;5.15;3.58;;;9.50;99.90;;;;;;5059801;28;20029;-58
2023/04/25 09:09:12;;;;;;;4.15;3.70;;;9.50;99.90;;;;;;5060430;28;20036;-59
2023/04/25 09:11:37;;;;;;;6.35;3.72;;;9.50;99.90;;;;;;5057970;28;20037;-59
2023/04/25 09:14:20;;;;;;;5.68;3.55;;;9.70;99.90;;;;;;5057410;28;20563;-59
2023/04/25 09:17:01;;;;;;;4.93;3.92;;;10.30;99.90;;;;;;5058798;28;20040;-60
2023/04/25 09:19:39;;;;;;;4.75;2.97;;;10.70;99.90;;;;;;5055856;28;20056;-59
2023/04/25 09:22:05;;;;;;;3.95;2.80;;;11.30;99.90;;;;;;5059138;28;20076;-59
2023/04/25 09:24:45;;;;;;;4.18;2.50;;;12.40;99.90;;;;;;5058037;28;20052;-58
2023/04/25 09:27:17;;;;;;;4.15;2.97;;;13.10;96.70;;;;;;5057011;28;20024;-59
2023/04/25 09:29:43;;;;;;;4.70;3.13;;;13.50;92.90;;;;;;5058460;28;20025;-60
2023/04/25 09:32:24;;;;;;;4.80;2.88;;;14.10;93.00;;;;;;5059780;28;20558;-59
2023/04/25 09:34:51;;;;;;;;;;;14.60;90.70;;;;;;5059267;28;20027;-59
2023/04/25 09:37:29;;;;;;;4.20;1.30;;;14.80;89.60;;;;;;5057456;28;19923;-59
2023/04/25 09:40:00;;;;;;;2.20;1.23;;;13.90;75.30;;;;;;5058778;28;20032;-59
2023/04/25 09:42:28;;;;;;;4.70;1.38;;;13.50;80.50;;;;;;5058323;28;20082;-59
2023/04/25 09:44:55;;;;;;;2.97;1.20;;;13.50;82.80;;;;;;5054074;28;20076;-58
2023/04/25 09:47:23;;;;;;;2.58;1.40;;;14.00;82.40;;;;;;5060580;28;20028;-60
2023/04/25 09:49:49;;;;;;;2.83;1.77;;;14.50;78.90;;;;;;5055557;28;20033;-60
2023/04/25 09:52:18;;;;;;;3.55;2.00;;;15.00;77.30;;;;;;5061382;28;20131;-59
2023/04/25 09:54:48;;;;;;;2.85;1.50;;;14.90;76.20;;;;;;5061709;28;20021;-60
2023/04/25 09:57:23;;;;;;;4.15;1.60;;;14.50;77.60;;;;;;5054960;28;20108;-60
2023/04/25 09:59:53;;;;;;;3.80;2.10;;;14.60;79.20;;;;;;5057339;28;20036;-59
2023/04/25 10:02:24;;;;;;;2.45;1.63;;;14.70;76.60;;;;;;5055673;28;20567;-59
2023/04/25 10:04:54;;;;;;;3.20;1.60;;;15.00;73.60;;;;;;5055574;28;20021;-59
2023/04/25 10:07:25;;;;;;;3.60;1.58;;;15.10;72.70;;;;;;5059984;28;20082;-60
2023/04/25 10:10:03;;;;;;;1.95;1.60;;;15.40;74.50;;;;;;5057191;28;20117;-60
2023/04/25 10:12:31;;;;;;;2.70;1.40;;;15.80;72.30;;;;;;5059800;28;20052;-60
2023/04/25 10:14:58;;;;;;;4.00;1.40;;;16.20;70.20;;;;;;5039378;28;20051;-60
2023/04/25 10:17:24;;;;;;;4.10;1.60;;;16.40;70.60;;;;;;5045122;28;20028;-61
2023/04/25 10:19:51;;;;;;;2.40;1.60;;;15.80;69.90;;;;;;5062147;28;20025;-59
2023/04/25 10:22:28;;;;;;;2.03;1.20;;;15.10;72.90;;;;;;5059035;28;20531;-59
2023/04/25 10:24:56;;;;;;;2.30;1.25;;;14.60;70.70;;;;;;5057412;28;20028;-61
2023/04/25 10:27:22;;;;;;;2.65;1.80;;;14.10;73.40;;;;;;5059470;28;20025;-59
2023/04/25 10:30:04;;;;;;;2.10;1.40;;;13.70;75.10;;;;;;5060348;28;20028;-59
2023/04/25 10:32:32;;;;;;;4.20;1.30;;;13.60;75.30;;;;;;5039544;28;20076;-60
2023/04/25 10:34:58;;;;;;;3.58;1.60;;;13.60;76.00;;;;;;5054997;28;20021;-59
2023/04/25 10:37:24;;;;;;;2.25;1.60;;;13.40;76.10;;;;;;5058571;28;20024;-59
2023/04/25 10:39:50;;;;;;;2.13;1.50;;;13.50;79.80;;;;;;5059137;28;20029;-59
2023/04/25 10:42:15;;;;;;;2.22;1.63;;;13.20;77.30;;;;;;5041983;28;20025;-61
2023/04/25 10:45:02;;;;;;;2.38;1.40;;;13.10;81.20;;;;;;5056424;28;20060;-60
2023/04/25 10:47:44;;;;;;;1.25;1.15;;;13.40;80.80;;;;;;5040762;28;20031;-60
2023/04/25 10:50:11;;;;;;;2.47;1.40;;;13.50;76.60;;;;;;5059517;28;20032;-59
2023/04/25 10:52:39;;;;;;;2.53;1.52;;;13.70;77.00;;;;;;5055497;28;20142;-59
2023/04/25 10:55:05;;;;;;;4.53;2.15;;;13.60;77.40;;;;;;5061023;28;20033;-60
2023/04/25 10:57:37;;;;;;;2.78;1.27;;;13.20;75.30;;;;;;5059045;28;20025;-59
2023/04/25 11:00:10;;;;;;;2.22;1.10;;;12.70;76.90;;;;;;5058123;28;20055;-58
2023/04/25 11:02:42;;;;;;;1.52;1.10;;;12.70;80.00;;;;;;5057391;28;20060;-58
2023/04/25 11:05:09;;;;;;;1.83;1.05;;;13.10;77.70;;;;;;5062929;28;20029;-58
2023/04/25 11:07:44;;;;;;;1.73;1.30;;;13.50;76.90;;;;;;5056523;28;20029;-60
2023/04/25 11:10:09;;;;;;;2.05;1.05;;;13.90;73.40;;;;;;5028880;28;20029;-59
2023/04/25 11:12:35;;;;;;;1.80;0.90;;;13.90;74.60;;;;;;5039988;28;20043;-58
2023/04/25 11:15:03;;;;;;;1.65;1.00;;;13.60;74.00;;;;;;5022821;28;20027;-59
2023/04/25 11:17:29;;;;;;;1.48;0.90;;;13.50;76.30;;;;;;5057573;28;20021;-59
2023/04/25 11:19:56;;;;;;;1.45;1.13;;;13.50;76.80;;;;;;5057295;28;20033;-59
2023/04/25 11:22:22;;;;;;;1.85;0.88;;;13.50;76.70;;;;;;5058048;28;20059;-60
2023/04/25 11:24:47;;;;;;;2.42;1.10;;;13.50;77.00;;;;;;5058153;28;20408;-60
2023/04/25 11:27:14;;;;;;;1.48;0.80;;;13.70;75.30;;;;;;5057592;28;20040;-58
2023/04/25 11:29:40;;;;;;;1.08;0.80;;;13.80;74.50;;;;;;5054324;28;20029;-59
2023/04/25 11:32:05;;;;;;;2.15;0.93;;;13.70;76.00;;;;;;5057877;28;20064;-59
2023/04/25 11:34:35;;;;;;;1.80;1.10;;;13.50;75.60;;;;;;5056417;28;20056;-58
2023/04/25 11:37:02;;;;;;;1.98;1.10;;;13.40;75.90;;;;;;5059134;28;20013;-60
2023/04/25 11:39:28;;;;;;;3.67;1.30;;;13.30;77.50;;;;;;5037959;28;20588;-59
2023/04/25 11:41:55;;;;;;;1.20;1.02;;;13.40;77.10;;;;;;5054502;28;20029;-58
2023/04/25 11:44:21;;;;;;;1.30;1.20;;;13.50;78.80;;;;;;5056465;28;20036;-60
2023/04/25 11:46:47;;;;;;;3.20;0.90;;;13.70;77.80;;;;;;5053362;28;20034;-58
2023/04/25 11:49:14;;;;;;;1.23;1.00;;;13.80;73.80;;;;;;5055976;28;20801;-59
2023/04/25 11:51:40;;;;;;;1.63;1.10;;;13.40;73.70;;;;;;5058095;28;20040;-59
2023/04/25 11:54:06;;;;;;;2.22;1.05;;;13.40;76.20;;;;;;5056781;28;20044;-59
2023/04/25 11:56:33;;;;;;;1.80;1.48;;;13.30;77.50;;;;;;5036674;28;20035;-59
2023/04/25 11:59:08;;;;;;;1.70;1.10;;;13.30;78.00;;;;;;5037307;28;20560;-59
2023/04/25 12:01:37;;;;;;;1.20;1.10;;;13.30;77.90;;;;;;5054839;28;20029;-58
2023/04/25 12:04:23;;;;;;;1.23;1.13;;;13.30;75.50;;;;;;5056450;28;20028;-58
2023/04/25 12:06:50;;;;;;;1.58;1.10;;;13.00;76.50;;;;;;5053384;28;20567;-58
2023/04/25 12:09:21;;;;;;;3.35;1.65;;;12.80;79.70;;;;;;5056446;28;20404;-59
2023/04/25 12:11:55;;;;;;;1.30;1.10;;;12.70;80.80;;;;;;5056551;28;20397;-58
2023/04/25 12:14:26;;;;;;;1.50;1.17;;;12.60;79.80;;;;;;5057280;28;20554;-60
2023/04/25 12:16:55;;;;;;;1.95;1.50;;;12.40;79.90;;;;;;5056064;28;20499;-61
2023/04/25 12:19:21;;;;;;;1.45;1.23;;;12.30;80.30;;;;;;5056517;28;20567;-61
2023/04/25 12:21:48;;;;;;;2.33;1.90;;;12.40;79.20;;;;;;5056420;28;20400;-62
2023/04/25 12:24:22;;;;;;;2.33;1.80;;;12.60;79.10;;;;;;5055855;28;20594;-62
2023/04/25 12:26:47;;;;;;;3.05;1.70;;;12.70;77.40;;;;;;5053679;28;20400;-60
2023/04/25 12:29:21;;;;;;;3.90;1.95;;;12.80;78.40;;;;;;5056864;28;20025;-61
2023/04/25 12:31:48;;;;;;;2.40;2.20;;;13.00;79.70;;;;;;5056597;28;20020;-60
2023/04/25 12:34:14;;;;;;;2.03;1.83;;;13.00;77.80;;;;;;5054776;28;20103;-60
2023/04/25 12:36:40;;;;;;;2.90;2.63;;;13.10;78.60;;;;;;5057375;28;20044;-60
2023/04/25 12:39:06;;;;;;;2.70;1.92;;;13.10;77.80;;;;;;5056349;28;20064;-60
2023/04/25 12:41:32;;;;;;;2.10;1.83;;;13.10;77.50;;;;;;5055851;28;20029;-60
2023/04/25 12:43:57;;;;;;;2.72;1.60;;;13.40;75.90;;;;;;5058639;28;20025;-60
2023/04/25 12:46:24;;;;;;;1.40;1.30;;;13.70;73.00;;;;;;5055568;28;20386;-62
2023/04/25 12:48:49;;;;;;;1.88;1.45;;;13.60;73.00;;;;;;5057794;28;20111;-60
2023/04/25 12:51:15;;;;;;;2.15;1.40;;;13.50;72.90;;;;;;5055604;28;20120;-60